createdAt,value
2023-06-19T00:01:10.580Z,100278.59
2023-06-19T00:03:41.265Z,100273.16
2023-06-19T00:06:08.512Z,100274.41
2023-06-19T00:08:37.363Z,100285.19
2023-06-19T00:11:04.689Z,100282.69
2023-06-19T00:13:31.562Z,100275.91
2023-06-19T00:16:01.445Z,100280.41
2023-06-19T00:18:29.420Z,100282.47
2023-06-19T00:20:57.352Z,100279.97
2023-06-19T00:23:24.599Z,100283.06
2023-06-19T00:25:51.791Z,100277.97
2023-06-19T00:28:21.043Z,100269.97
2023-06-19T00:30:48.485Z,100273.50
2023-06-19T00:33:15.354Z,100272.78
2023-06-19T00:35:42.788Z,100269.97
2023-06-19T00:38:10.062Z,100265.78
2023-06-19T00:40:37.503Z,100258.88
2023-06-19T00:43:04.625Z,100262.66
2023-06-19T00:45:32.305Z,100260.97
2023-06-19T00:48:00.671Z,100263.06
2023-06-19T00:50:33.214Z,100263.47
2023-06-19T00:53:03.645Z,100272.53
2023-06-19T00:55:31.768Z,100266.63
2023-06-19T00:58:00.394Z,100265.06
2023-06-19T01:00:27.865Z,100262.69
2023-06-19T01:02:54.853Z,100263.91
2023-06-19T01:05:22.225Z,100263.22
2023-06-19T01:07:51.891Z,100256.19
2023-06-19T01:10:23.167Z,100257.19
2023-06-19T01:13:14.570Z,100254.75
2023-06-19T01:15:43.423Z,100257.72
2023-06-19T01:18:12.816Z,100261.34
2023-06-19T01:20:40.136Z,100261.50
2023-06-19T01:23:11.036Z,100261.72
2023-06-19T01:25:38.984Z,100269.88
2023-06-19T01:28:10.908Z,100260.34
2023-06-19T01:30:39.772Z,100261.28
2023-06-19T01:33:24.416Z,100257.91
2023-06-19T01:35:52.022Z,100251.59
2023-06-19T01:38:22.078Z,100255.13
2023-06-19T01:40:56.310Z,100248.25
2023-06-19T01:43:24.673Z,100243.06
2023-06-19T01:45:51.977Z,100237.59
2023-06-19T01:48:19.009Z,100238.72
2023-06-19T01:50:50.039Z,100241.63
2023-06-19T01:53:17.218Z,100235.47
2023-06-19T01:55:44.701Z,100238.41
2023-06-19T01:58:11.560Z,100241.31
2023-06-19T02:00:38.756Z,100242.41
2023-06-19T02:03:06.203Z,100244.38
2023-06-19T02:05:35.408Z,100249.81
2023-06-19T02:08:02.273Z,100259.88
2023-06-19T02:10:29.391Z,100253.72
2023-06-19T02:12:56.290Z,100251.28
2023-06-19T02:15:23.420Z,100252.41
2023-06-19T02:17:56.248Z,100249.16
2023-06-19T02:20:25.813Z,100242.41
2023-06-19T02:22:53.041Z,100251.09
2023-06-19T02:25:20.562Z,100249.16
2023-06-19T02:27:47.394Z,100246.91
2023-06-19T02:30:14.857Z,100250.66
2023-06-19T02:32:41.779Z,100246.16
2023-06-19T02:35:11.479Z,100252.88
2023-06-19T02:37:38.569Z,100252.78
2023-06-19T02:40:07.546Z,100255.31
2023-06-19T02:42:34.525Z,100261.03
2023-06-19T02:45:04.465Z,100262.97
2023-06-19T02:47:32.753Z,100263.91
2023-06-19T02:50:00.795Z,100265.03
2023-06-19T02:52:28.525Z,100270.84
2023-06-19T02:54:55.797Z,100276.50
2023-06-19T02:57:22.767Z,100271.09
2023-06-19T02:59:50.589Z,100271.09
2023-06-19T03:02:17.490Z,100267.47
2023-06-19T03:04:47.753Z,100264.94
2023-06-19T03:07:17.826Z,100266.75
2023-06-19T03:09:45.077Z,100267.59
2023-06-19T03:12:11.983Z,100262.28
2023-06-19T03:14:39.187Z,100271.09
2023-06-19T03:17:06.350Z,100273.75
2023-06-19T03:19:33.601Z,100268.19
2023-06-19T03:22:00.454Z,100275.94
2023-06-19T03:24:27.727Z,100270.13
2023-06-19T03:26:54.704Z,100275.34
2023-06-19T03:29:22.190Z,100275.09
2023-06-19T03:31:49.134Z,100281.69
2023-06-19T03:34:16.293Z,100287.97
2023-06-19T03:36:43.242Z,100280.03
2023-06-19T03:39:10.364Z,100287.50
2023-06-19T03:41:37.195Z,100285.91
2023-06-19T03:44:04.572Z,100298.88
2023-06-19T03:46:31.455Z,100296.16
2023-06-19T03:48:58.645Z,100292.66
2023-06-19T03:51:25.556Z,100292.91
2023-06-19T03:53:52.781Z,100292.53
2023-06-19T03:56:19.674Z,100288.88
2023-06-19T03:58:46.836Z,100287.06
2023-06-19T04:01:13.774Z,100289.47
2023-06-19T04:03:42.253Z,100295.50
2023-06-19T04:06:09.452Z,100285.56
2023-06-19T04:08:36.595Z,100288.69
2023-06-19T04:11:03.506Z,100291.22
2023-06-19T04:13:30.817Z,100285.63
2023-06-19T04:15:57.810Z,100290.69
2023-06-19T04:18:25.067Z,100288.03
2023-06-19T04:20:52.010Z,100295.75
2023-06-19T04:23:19.217Z,100286.13
2023-06-19T04:25:46.093Z,100295.75
2023-06-19T04:28:13.287Z,100299.56
2023-06-19T04:30:40.649Z,100293.56
2023-06-19T04:33:09.787Z,100299.63
2023-06-19T04:35:41.549Z,100296.56
2023-06-19T04:38:09.777Z,100298.84
2023-06-19T04:40:36.748Z,100290.56
2023-06-19T04:43:06.946Z,100296.31
2023-06-19T04:45:34.082Z,100301.56
2023-06-19T04:48:04.261Z,100303.09
2023-06-19T04:50:31.393Z,100296.81
2023-06-19T04:52:58.530Z,100302.50
2023-06-19T04:55:26.714Z,100309.78
2023-06-19T04:57:53.960Z,100306.41
2023-06-19T05:00:21.224Z,100306.69
2023-06-19T05:02:48.881Z,100304.28
2023-06-19T05:05:16.171Z,100302.63
2023-06-19T05:07:43.586Z,100305.00
2023-06-19T05:10:11.540Z,100308.50
2023-06-19T05:12:38.782Z,100317.63
2023-06-19T05:15:06.243Z,100317.50
2023-06-19T05:17:33.497Z,100318.72
2023-06-19T05:20:00.500Z,100329.25
2023-06-19T05:22:28.296Z,100327.59
2023-06-19T05:24:55.183Z,100329.69
2023-06-19T05:27:22.346Z,100328.00
2023-06-19T05:29:49.251Z,100325.47
2023-06-19T05:32:16.537Z,100330.97
2023-06-19T05:34:43.496Z,100337.41
2023-06-19T05:37:10.952Z,100333.22
2023-06-19T05:39:37.889Z,100316.31
2023-06-19T05:42:05.334Z,100324.03
2023-06-19T05:44:32.299Z,100328.81
2023-06-19T05:46:59.491Z,100324.97
2023-06-19T05:49:26.428Z,100323.66
2023-06-19T05:52:02.177Z,100334.84
2023-06-19T05:54:29.227Z,100331.25
2023-06-19T05:56:56.386Z,100346.56
2023-06-19T05:59:23.263Z,100353.41
2023-06-19T06:01:51.978Z,100350.41
2023-06-19T06:04:19.659Z,100352.69
2023-06-19T06:06:46.890Z,100348.19
2023-06-19T06:09:14.373Z,100356.00
2023-06-19T06:11:41.580Z,100348.88
2023-06-19T06:14:10.736Z,100349.50
2023-06-19T06:16:39.789Z,100345.53
2023-06-19T06:19:07.677Z,100347.84
2023-06-19T06:21:35.990Z,100345.59
2023-06-19T06:24:03.800Z,100353.53
2023-06-19T06:26:31.174Z,100352.78
2023-06-19T06:28:58.043Z,100353.47
2023-06-19T06:31:25.291Z,100347.84
2023-06-19T06:33:52.126Z,100346.22
2023-06-19T06:36:33.780Z,100354.81
2023-06-19T06:39:02.766Z,100347.72
2023-06-19T06:41:33.923Z,100354.59
2023-06-19T06:44:02.252Z,100351.91
2023-06-19T06:46:29.455Z,100348.59
2023-06-19T06:48:56.404Z,100358.88
2023-06-19T06:51:23.814Z,100357.72
2023-06-19T06:53:51.877Z,100360.09
2023-06-19T06:56:19.089Z,100365.31
2023-06-19T06:58:48.040Z,100365.00
2023-06-19T07:01:15.297Z,100354.09
2023-06-19T07:03:42.259Z,100355.44
2023-06-19T07:06:09.455Z,100358.13
2023-06-19T07:08:36.521Z,100352.41
2023-06-19T07:11:04.541Z,100353.72
2023-06-19T07:13:31.462Z,100354.22
2023-06-19T07:15:59.513Z,100350.53
2023-06-19T07:18:26.314Z,100348.34
2023-06-19T07:20:53.883Z,100341.91
2023-06-19T07:23:20.764Z,100340.38
2023-06-19T07:25:48.411Z,100346.22
2023-06-19T07:28:16.486Z,100339.63
2023-06-19T07:30:44.778Z,100338.75
2023-06-19T07:33:11.640Z,100333.81
2023-06-19T07:35:38.838Z,100343.16
2023-06-19T07:38:05.749Z,100342.31
2023-06-19T07:40:33.200Z,100346.94
2023-06-19T07:43:00.053Z,100343.59
2023-06-19T07:45:27.632Z,100343.56
2023-06-19T07:47:58.669Z,100344.28
2023-06-19T07:50:27.870Z,100341.34
2023-06-19T07:52:55.298Z,100338.41
2023-06-19T07:55:22.532Z,100338.34
2023-06-19T07:57:49.411Z,100337.75
2023-06-19T08:00:17.123Z,100336.97
2023-06-19T08:02:44.148Z,100338.91
2023-06-19T08:05:11.988Z,100327.28
2023-06-19T08:07:39.516Z,100334.84
2023-06-19T08:10:13.096Z,100328.47
2023-06-19T08:12:43.552Z,100322.28
2023-06-19T08:15:12.112Z,100323.16
2023-06-19T08:17:39.285Z,100327.28
2023-06-19T08:20:08.149Z,100327.75
2023-06-19T08:22:35.018Z,100334.13
2023-06-19T08:25:02.841Z,100320.72
2023-06-19T08:27:29.817Z,100329.19
2023-06-19T08:29:57.106Z,100329.00
2023-06-19T08:32:24.097Z,100325.72
2023-06-19T08:34:51.317Z,100326.84
2023-06-19T08:37:19.599Z,100335.84
2023-06-19T08:39:46.781Z,100318.94
2023-06-19T08:42:13.877Z,100326.75
2023-06-19T08:44:41.160Z,100327.59
2023-06-19T08:47:08.326Z,100328.69
2023-06-19T08:49:36.163Z,100325.53
2023-06-19T08:52:04.923Z,100319.28
2023-06-19T08:54:32.678Z,100321.34
2023-06-19T08:57:04.103Z,100318.81
2023-06-19T08:59:33.073Z,100318.28
2023-06-19T09:02:00.200Z,100323.44
2023-06-19T09:04:28.670Z,100307.66
2023-06-19T09:07:00.726Z,100310.41
2023-06-19T09:09:28.605Z,100313.78
2023-06-19T09:12:00.433Z,100313.84
2023-06-19T09:14:40.870Z,100314.81
2023-06-19T09:17:12.397Z,100311.94
2023-06-19T09:19:48.823Z,100301.63
2023-06-19T09:22:19.799Z,100312.00
2023-06-19T09:24:47.204Z,100314.19
2023-06-19T09:27:15.069Z,100311.69
2023-06-19T09:29:43.411Z,100310.41
2023-06-19T09:32:23.562Z,100310.44
2023-06-19T09:34:52.504Z,100314.25
2023-06-19T09:37:27.680Z,100304.03
2023-06-19T09:40:00.253Z,100298.59
2023-06-19T09:42:33.285Z,100304.44
2023-06-19T09:45:05.566Z,100298.38
2023-06-19T09:47:34.764Z,100301.72
2023-06-19T09:50:02.920Z,100294.63
2023-06-19T09:52:29.863Z,100298.19
2023-06-19T09:54:58.991Z,100295.44
2023-06-19T09:57:25.945Z,100296.09
2023-06-19T09:59:57.850Z,100295.44
2023-06-19T10:02:28.470Z,100283.56
2023-06-19T10:04:57.321Z,100274.38
2023-06-19T10:07:29.027Z,100275.88
2023-06-19T10:10:00.478Z,100269.09
2023-06-19T10:12:44.608Z,100269.44
2023-06-19T10:15:24.852Z,100271.69
2023-06-19T10:18:17.805Z,100265.50
2023-06-19T10:20:47.759Z,100267.78
2023-06-19T10:23:21.020Z,100262.22
2023-06-19T10:25:59.399Z,100268.56
2023-06-19T10:28:33.541Z,100264.81
2023-06-19T10:31:04.254Z,100264.72
2023-06-19T10:33:37.982Z,100265.44
2023-06-19T10:36:19.898Z,100265.63
2023-06-19T10:38:50.643Z,100262.78
2023-06-19T10:41:28.785Z,100253.44
2023-06-19T10:44:05.122Z,100273.50
2023-06-19T10:46:36.947Z,100246.16
2023-06-19T10:49:05.642Z,100253.63
2023-06-19T10:51:36.540Z,100252.50
2023-06-19T10:54:03.947Z,100252.84
2023-06-19T10:56:31.058Z,100254.91
2023-06-19T10:59:02.474Z,100246.19
2023-06-19T11:01:50.110Z,100252.84
2023-06-19T11:04:17.325Z,100244.91
2023-06-19T11:06:47.009Z,100248.31
2023-06-19T11:09:14.795Z,100247.06
2023-06-19T11:11:44.994Z,100244.00
2023-06-19T11:14:16.543Z,100245.94
2023-06-19T11:16:49.230Z,100247.22
2023-06-19T11:19:18.825Z,100252.31
2023-06-19T11:21:51.231Z,100243.25
2023-06-19T11:24:19.461Z,100235.66
2023-06-19T11:26:52.682Z,100233.53
2023-06-19T11:29:23.144Z,100235.19
2023-06-19T11:31:51.246Z,100238.41
2023-06-19T11:34:21.768Z,100227.66
2023-06-19T11:36:51.605Z,100236.50
2023-06-19T11:39:19.056Z,100236.50
2023-06-19T11:41:46.603Z,100230.44
2023-06-19T11:44:13.704Z,100233.66
2023-06-19T11:46:40.901Z,100220.13
2023-06-19T11:49:15.925Z,100221.47
2023-06-19T11:51:43.184Z,100220.56
2023-06-19T11:54:11.688Z,100222.63
2023-06-19T11:56:39.969Z,100221.41
2023-06-19T11:59:07.363Z,100217.78
2023-06-19T12:01:35.766Z,100214.41
2023-06-19T12:04:06.528Z,100211.94
2023-06-19T12:06:36.564Z,100210.41
2023-06-19T12:09:05.878Z,100224.75
2023-06-19T12:11:33.202Z,100216.97
2023-06-19T12:14:00.167Z,100211.94
2023-06-19T12:16:28.795Z,100204.13
2023-06-19T12:18:55.725Z,100211.66
2023-06-19T12:21:34.909Z,100201.47
2023-06-19T12:24:05.559Z,100206.22
2023-06-19T12:26:37.958Z,100198.44
2023-06-19T12:29:05.741Z,100200.19
2023-06-19T12:31:33.468Z,100196.06
2023-06-19T12:34:01.618Z,100196.22
2023-06-19T12:36:34.077Z,100188.66
2023-06-19T12:39:01.757Z,100191.28
2023-06-19T12:41:28.924Z,100190.34
2023-06-19T12:43:55.857Z,100192.72
2023-06-19T12:46:23.140Z,100189.00
2023-06-19T12:48:51.712Z,100184.44
2023-06-19T12:51:19.904Z,100182.00
2023-06-19T12:53:46.857Z,100182.88
2023-06-19T12:56:14.534Z,100175.63
2023-06-19T12:58:41.464Z,100178.97
2023-06-19T13:01:08.665Z,100171.06
2023-06-19T13:03:35.621Z,100178.19
2023-06-19T13:06:02.902Z,100166.69
2023-06-19T13:08:29.753Z,100171.50
2023-06-19T13:10:56.964Z,100165.06
2023-06-19T13:13:23.825Z,100170.44
2023-06-19T13:15:51.234Z,100162.75
2023-06-19T13:18:19.312Z,100164.38
2023-06-19T13:20:49.131Z,100159.81
2023-06-19T13:23:16.155Z,100161.72
2023-06-19T13:25:43.334Z,100150.88
2023-06-19T13:28:10.213Z,100154.06
2023-06-19T13:30:37.588Z,100155.34
2023-06-19T13:33:05.475Z,100151.56
2023-06-19T13:35:32.965Z,100152.63
2023-06-19T13:38:00.747Z,100149.09
2023-06-19T13:40:27.942Z,100152.25
2023-06-19T13:42:55.786Z,100145.00
2023-06-19T13:45:22.962Z,100151.97
2023-06-19T13:47:49.829Z,100146.00
2023-06-19T13:50:19.397Z,100147.41
2023-06-19T13:52:47.196Z,100142.44
2023-06-19T13:55:18.340Z,100145.75
2023-06-19T13:57:45.281Z,100147.91
2023-06-19T14:00:13.339Z,100150.00
2023-06-19T14:02:40.342Z,100143.94
2023-06-19T14:05:09.671Z,100145.28
2023-06-19T14:07:36.992Z,100148.88
2023-06-19T14:10:06.012Z,100140.34
2023-06-19T14:12:32.879Z,100135.66
2023-06-19T14:15:00.257Z,100135.81
2023-06-19T14:17:27.555Z,100139.53
2023-06-19T14:19:56.643Z,100135.97
2023-06-19T14:22:23.590Z,100128.88
2023-06-19T14:24:51.146Z,100131.91
2023-06-19T14:27:17.970Z,100133.22
2023-06-19T14:29:45.603Z,100131.81
2023-06-19T14:32:13.354Z,100132.66
2023-06-19T14:34:40.488Z,100130.38
2023-06-19T14:37:07.392Z,100125.84
2023-06-19T14:39:34.529Z,100128.59
2023-06-19T14:42:01.465Z,100129.03
2023-06-19T14:44:28.592Z,100125.75
2023-06-19T14:46:55.503Z,100133.63
2023-06-19T14:49:22.789Z,100134.81
2023-06-19T14:51:49.623Z,100132.91
2023-06-19T14:54:18.713Z,100127.84
2023-06-19T14:56:49.097Z,100123.78
2023-06-19T14:59:16.743Z,100129.50
2023-06-19T15:01:43.673Z,100122.72
2023-06-19T15:04:10.993Z,100129.78
2023-06-19T15:06:38.083Z,100125.41
2023-06-19T15:09:05.685Z,100123.25
2023-06-19T15:11:33.706Z,100124.03
2023-06-19T15:14:01.041Z,100120.00
2023-06-19T15:16:27.951Z,100121.06
2023-06-19T15:18:55.590Z,100121.44
2023-06-19T15:21:22.610Z,100120.19
2023-06-19T15:23:52.545Z,100118.31
2023-06-19T15:26:19.404Z,100115.59
2023-06-19T15:28:48.417Z,100122.16
2023-06-19T15:31:17.136Z,100121.09
2023-06-19T15:33:44.576Z,100127.97
2023-06-19T15:36:11.485Z,100124.34
2023-06-19T15:38:38.808Z,100115.44
2023-06-19T15:41:05.665Z,100119.31
2023-06-19T15:43:32.929Z,100123.97
2023-06-19T15:45:59.954Z,100125.22
2023-06-19T15:48:27.225Z,100129.13
2023-06-19T15:50:54.262Z,100127.13
2023-06-19T15:53:21.483Z,100124.06
2023-06-19T15:55:48.473Z,100119.72
2023-06-19T15:58:15.732Z,100123.44
2023-06-19T16:00:42.631Z,100118.06
2023-06-19T16:03:09.973Z,100115.63
2023-06-19T16:05:37.105Z,100124.38
2023-06-19T16:08:04.258Z,100119.44
2023-06-19T16:10:31.112Z,100117.75
2023-06-19T16:12:58.297Z,100122.06
2023-06-19T16:15:29.028Z,100122.66
2023-06-19T16:17:56.653Z,100120.88
2023-06-19T16:20:24.427Z,100119.69
2023-06-19T16:22:52.298Z,100121.75
2023-06-19T16:25:19.492Z,100116.28
2023-06-19T16:27:46.774Z,100120.34
2023-06-19T16:30:13.797Z,100121.25
2023-06-19T16:32:41.181Z,100119.38
2023-06-19T16:35:08.687Z,100121.97
2023-06-19T16:37:36.469Z,100116.59
2023-06-19T16:40:06.223Z,100127.19
2023-06-19T16:42:33.441Z,100117.97
2023-06-19T16:45:00.442Z,100127.00
2023-06-19T16:47:28.277Z,100133.91
2023-06-19T16:49:55.143Z,100121.31
2023-06-19T16:52:23.380Z,100126.59
2023-06-19T16:54:50.404Z,100136.25
2023-06-19T16:57:17.542Z,100130.53
2023-06-19T16:59:44.453Z,100126.75
2023-06-19T17:02:11.849Z,100135.59
2023-06-19T17:04:39.929Z,100130.28
2023-06-19T17:07:07.121Z,100122.34
2023-06-19T17:09:33.956Z,100128.31
2023-06-19T17:12:01.048Z,100134.66
2023-06-19T17:14:27.979Z,100127.94
2023-06-19T17:16:55.968Z,100130.41
2023-06-19T17:19:23.095Z,100129.25
2023-06-19T17:21:50.390Z,100130.19
2023-06-19T17:24:18.705Z,100137.00
2023-06-19T17:26:46.361Z,100138.41
2023-06-19T17:29:13.254Z,100144.78
2023-06-19T17:31:41.014Z,100140.56
2023-06-19T17:34:07.925Z,100144.38
2023-06-19T17:36:35.089Z,100145.78
2023-06-19T17:39:01.986Z,100145.22
2023-06-19T17:41:29.249Z,100151.28
2023-06-19T17:43:56.136Z,100147.38
2023-06-19T17:46:23.419Z,100146.34
2023-06-19T17:48:50.348Z,100149.13
2023-06-19T17:51:17.492Z,100150.59
2023-06-19T17:53:44.806Z,100156.50
2023-06-19T17:56:11.976Z,100159.81
2023-06-19T17:58:38.927Z,100155.91
2023-06-19T18:01:06.060Z,100151.53
2023-06-19T18:03:33.074Z,100164.28
2023-06-19T18:06:00.297Z,100163.44
2023-06-19T18:08:27.198Z,100161.94
2023-06-19T18:10:54.365Z,100163.41
2023-06-19T18:13:21.235Z,100158.81
2023-06-19T18:16:02.486Z,100169.63
2023-06-19T18:18:35.944Z,100170.63
2023-06-19T18:21:03.567Z,100169.53
2023-06-19T18:23:30.589Z,100174.06
2023-06-19T18:25:58.003Z,100168.41
2023-06-19T18:28:24.930Z,100168.34
2023-06-19T18:30:52.120Z,100168.91
2023-06-19T18:33:19.072Z,100172.19
2023-06-19T18:35:46.304Z,100181.03
2023-06-19T18:38:14.194Z,100173.47
2023-06-19T18:40:42.826Z,100182.13
2023-06-19T18:43:09.766Z,100184.56
2023-06-19T18:45:37.465Z,100184.44
2023-06-19T18:48:04.513Z,100180.56
2023-06-19T18:50:32.200Z,100182.50
2023-06-19T18:52:59.368Z,100184.88
2023-06-19T18:55:26.594Z,100193.94
2023-06-19T18:57:53.671Z,100198.19
2023-06-19T19:00:21.158Z,100189.28
2023-06-19T19:02:48.395Z,100194.78
2023-06-19T19:05:15.867Z,100203.19
2023-06-19T19:07:42.787Z,100203.03
2023-06-19T19:10:10.911Z,100203.97
2023-06-19T19:12:38.181Z,100205.72
2023-06-19T19:15:06.604Z,100208.06
2023-06-19T19:17:34.117Z,100215.41
2023-06-19T19:20:04.849Z,100215.81
2023-06-19T19:22:31.887Z,100212.38
2023-06-19T19:24:59.106Z,100217.03
2023-06-19T19:27:26.628Z,100216.72
2023-06-19T19:29:53.977Z,100221.53
2023-06-19T19:32:22.425Z,100223.13
2023-06-19T19:34:49.850Z,100214.06
2023-06-19T19:37:16.793Z,100222.88
2023-06-19T19:39:44.397Z,100224.63
2023-06-19T19:42:11.256Z,100221.81
2023-06-19T19:44:38.418Z,100221.47
2023-06-19T19:47:05.923Z,100231.13
2023-06-19T19:49:33.855Z,100234.53
2023-06-19T19:52:00.757Z,100241.44
2023-06-19T19:54:27.929Z,100247.56
2023-06-19T19:56:55.509Z,100246.25
2023-06-19T19:59:23.114Z,100249.63
2023-06-19T20:01:50.503Z,100244.63
2023-06-19T20:04:17.765Z,100253.03
2023-06-19T20:06:44.853Z,100250.53
2023-06-19T20:09:13.220Z,100252.91
2023-06-19T20:11:40.364Z,100248.06
2023-06-19T20:14:08.488Z,100250.25
2023-06-19T20:16:36.008Z,100252.81
2023-06-19T20:19:03.200Z,100248.47
2023-06-19T20:21:30.271Z,100244.28
2023-06-19T20:23:57.397Z,100243.44
2023-06-19T20:26:24.408Z,100249.50
2023-06-19T20:28:51.725Z,100246.53
2023-06-19T20:31:18.726Z,100253.06
2023-06-19T20:33:45.913Z,100249.22
2023-06-19T20:36:12.769Z,100256.81
2023-06-19T20:38:39.903Z,100252.28
2023-06-19T20:41:06.829Z,100259.19
2023-06-19T20:43:33.918Z,100264.41
2023-06-19T20:46:01.756Z,100258.69
2023-06-19T20:48:29.796Z,100265.75
2023-06-19T20:50:57.680Z,100275.84
2023-06-19T20:53:27.276Z,100271.97
2023-06-19T20:55:54.227Z,100274.50
2023-06-19T20:58:28.127Z,100282.19
2023-06-19T21:00:55.933Z,100279.19
2023-06-19T21:03:24.455Z,100279.19
2023-06-19T21:05:51.560Z,100277.66
2023-06-19T21:08:18.790Z,100284.22
2023-06-19T21:10:45.745Z,100283.69
2023-06-19T21:13:22.001Z,100284.03
2023-06-19T21:15:50.453Z,100287.38
2023-06-19T21:18:18.870Z,100277.00
2023-06-19T21:20:45.755Z,100292.59
2023-06-19T21:23:13.224Z,100293.25
2023-06-19T21:25:41.006Z,100291.72
2023-06-19T21:28:08.218Z,100295.75
2023-06-19T21:30:35.595Z,100292.38
2023-06-19T21:33:02.933Z,100297.56
2023-06-19T21:35:29.887Z,100294.53
2023-06-19T21:37:57.123Z,100290.66
2023-06-19T21:40:24.439Z,100293.84
2023-06-19T21:42:51.879Z,100289.59
2023-06-19T21:45:18.846Z,100291.78
2023-06-19T21:47:48.222Z,100295.78
2023-06-19T21:50:20.679Z,100295.09
2023-06-19T21:52:48.000Z,100296.59
2023-06-19T21:55:15.288Z,100297.22
2023-06-19T22:00:14.173Z,100304.25
2023-06-19T22:02:41.613Z,100295.88
2023-06-19T22:05:08.705Z,100299.69
2023-06-19T22:07:36.030Z,100302.69
2023-06-19T22:10:03.846Z,100308.53
2023-06-19T22:12:31.105Z,100317.41
2023-06-19T22:14:58.360Z,100313.72
2023-06-19T22:17:25.608Z,100319.44
2023-06-19T22:19:52.616Z,100314.53
2023-06-19T22:22:19.844Z,100321.38
2023-06-19T22:24:46.793Z,100318.69
2023-06-19T22:27:13.991Z,100324.91
2023-06-19T22:29:40.827Z,100311.97
2023-06-19T22:32:08.990Z,100312.59
2023-06-19T22:34:36.196Z,100319.25
2023-06-19T22:37:04.115Z,100318.75
2023-06-19T22:39:31.989Z,100316.38
2023-06-19T22:41:59.634Z,100314.03
2023-06-19T22:44:26.596Z,100320.97
2023-06-19T22:46:54.842Z,100314.41
2023-06-19T22:49:21.969Z,100313.72
2023-06-19T22:51:49.100Z,100318.69
2023-06-19T22:54:16.002Z,100319.03
2023-06-19T22:56:43.234Z,100315.97
2023-06-19T22:59:10.189Z,100322.47
2023-06-19T23:01:38.152Z,100316.97
2023-06-19T23:04:07.962Z,100313.59
2023-06-19T23:06:43.322Z,100311.91
2023-06-19T23:09:13.659Z,100317.41
2023-06-19T23:11:41.362Z,100310.69
2023-06-19T23:14:08.464Z,100305.34
2023-06-19T23:16:35.640Z,100299.28
2023-06-19T23:19:02.582Z,100295.94
2023-06-19T23:21:32.557Z,100301.91
2023-06-19T23:23:59.707Z,100303.91
2023-06-19T23:26:26.934Z,100301.66
2023-06-19T23:28:55.325Z,100288.75
2023-06-19T23:31:22.670Z,100302.44
2023-06-19T23:33:55.232Z,100293.03
2023-06-19T23:36:22.386Z,100300.53
2023-06-19T23:38:52.584Z,100298.19
2023-06-19T23:41:20.482Z,100299.47
2023-06-19T23:43:48.316Z,100294.44
2023-06-19T23:46:16.770Z,100295.72
2023-06-19T23:48:43.753Z,100297.72
2023-06-19T23:51:11.090Z,100293.47
2023-06-19T23:53:38.114Z,100294.75
2023-06-19T23:56:05.463Z,100295.22
2023-06-19T23:58:32.372Z,100294.69
